Time;durP1;ratioP1;P1;durP2;ratioP2;P2;SDS_P1;SDS_P2;PMS_P1;PMS_P2;Temp;Humidity;BMP_temperature;BMP_pressure;BME280_temperature;BME280_humidity;BME280_pressure;Samples;Min_cycle;Max_cycle;Signal;HPM_P1;HPM_P2
2024/01/17 00:02:00;;;;;;;7.70;3.20;;;0.80;99.90;;;;;;5015073;28;20045;-89
2024/01/17 00:04:27;;;;;;;8.75;3.75;;;0.80;99.90;;;;;;5031121;28;20483;-90
2024/01/17 00:06:57;;;;;;;10.30;3.03;;;2.50;99.90;;;;;;5030857;28;20036;-89
2024/01/17 00:09:23;;;;;;;8.60;3.40;;;0.80;99.90;;;;;;5011530;28;20124;-89
2024/01/17 00:11:50;;;;;;;8.40;2.92;;;0.70;99.90;;;;;;5014496;28;20037;-89
2024/01/17 00:14:16;;;;;;;9.60;3.20;;;2.00;99.90;;;;;;5027913;28;20041;-90
2024/01/17 00:16:41;;;;;;;7.78;3.00;;;1.40;99.90;;;;;;5014706;28;20124;-90
2024/01/17 00:19:07;;;;;;;10.60;4.13;;;2.30;99.90;;;;;;5013408;28;20541;-89
2024/01/17 00:21:33;;;;;;;9.13;3.58;;;0.60;99.90;;;;;;5015103;28;20119;-89
2024/01/17 00:23:59;;;;;;;9.15;3.38;;;0.60;99.90;;;;;;5031630;28;20048;-90
2024/01/17 00:26:24;;;;;;;9.40;3.30;;;0.60;99.90;;;;;;4997958;28;20033;-90
2024/01/17 00:28:50;;;;;;;8.68;3.20;;;0.50;99.90;;;;;;5046787;28;20409;-90
2024/01/17 00:31:16;;;;;;;9.05;2.90;;;0.50;99.90;;;;;;5009680;28;20052;-90
2024/01/17 00:33:41;;;;;;;7.75;3.33;;;0.50;99.90;;;;;;5014226;28;20529;-90
2024/01/17 00:36:08;;;;;;;9.38;3.03;;;;;;;;;;5031115;28;20104;-90
2024/01/17 00:38:34;;;;;;;7.68;3.20;;;0.50;99.90;;;;;;5030884;28;20045;-90
2024/01/17 00:41:00;;;;;;;11.93;3.55;;;0.50;99.90;;;;;;5013122;28;20033;-90
2024/01/17 00:43:26;;;;;;;9.80;3.28;;;1.70;99.90;;;;;;5056438;28;20128;-91
2024/01/17 00:45:51;;;;;;;8.57;3.30;;;0.50;99.90;;;;;;5031363;28;20124;-90
2024/01/17 00:48:18;;;;;;;8.38;3.00;;;2.10;99.90;;;;;;5014204;28;20041;-90
2024/01/17 00:50:44;;;;;;;10.45;3.30;;;0.50;99.90;;;;;;5014176;28;20064;-90
2024/01/17 00:53:10;;;;;;;8.38;3.67;;;0.50;99.90;;;;;;5016821;28;20041;-90
2024/01/17 00:55:36;;;;;;;8.88;3.38;;;0.50;99.90;;;;;;5017790;28;20334;-90
2024/01/17 00:58:02;;;;;;;7.72;2.95;;;1.70;99.90;;;;;;5017890;28;20485;-90
2024/01/17 01:00:28;;;;;;;8.45;3.25;;;0.50;99.90;;;;;;5017675;28;20048;-91
2024/01/17 01:02:53;;;;;;;9.15;3.20;;;1.90;99.90;;;;;;5017232;28;20041;-91
2024/01/17 01:05:19;;;;;;;9.02;3.40;;;2.00;99.90;;;;;;5048911;28;20059;-90
2024/01/17 01:07:47;;;;;;;7.97;3.03;;;0.50;99.90;;;;;;5018287;28;20094;-91
2024/01/17 01:10:13;;;;;;;7.88;3.10;;;2.00;99.90;;;;;;5002340;28;20044;-91
2024/01/17 01:12:39;;;;;;;7.82;3.20;;;0.60;99.90;;;;;;5017659;28;20745;-89
2024/01/17 01:15:06;;;;;;;9.00;3.45;;;1.20;99.90;;;;;;5034069;28;20033;-90
2024/01/17 01:17:31;;;;;;;8.60;3.30;;;0.60;99.90;;;;;;5034027;28;20052;-90
2024/01/17 01:19:57;;;;;;;9.60;3.45;;;0.60;99.90;;;;;;5031292;28;20487;-90
2024/01/17 01:22:23;;;;;;;7.53;3.40;;;0.60;99.90;;;;;;5016467;28;20037;-90
2024/01/17 01:24:49;;;;;;;9.60;4.00;;;2.20;99.90;;;;;;5050898;28;20037;-90
2024/01/17 01:27:15;;;;;;;8.82;3.65;;;0.60;99.90;;;;;;5034141;28;20114;-89
2024/01/17 01:29:41;;;;;;;8.95;3.53;;;0.60;99.90;;;;;;5032953;28;20556;-90
2024/01/17 01:32:07;;;;;;;9.48;3.85;;;1.20;99.90;;;;;;5017610;28;20098;-89
2024/01/17 01:34:33;;;;;;;9.27;3.50;;;1.90;99.90;;;;;;5017208;28;20037;-89
2024/01/17 01:37:00;;;;;;;11.00;3.63;;;1.30;99.90;;;;;;5017213;28;20491;-89
2024/01/17 01:39:26;;;;;;;10.27;3.70;;;0.60;99.90;;;;;;5033662;28;20075;-89
2024/01/17 01:41:52;;;;;;;12.57;4.03;;;0.60;99.90;;;;;;5016437;28;20041;-89
2024/01/17 01:44:18;;;;;;;10.73;3.67;;;0.60;99.90;;;;;;5017066;28;20079;-89
2024/01/17 01:46:46;;;;;;;7.95;3.75;;;1.30;99.90;;;;;;5033734;28;20663;-89
2024/01/17 01:49:15;;;;;;;9.20;3.88;;;0.60;99.90;;;;;;5033310;28;20044;-89
2024/01/17 01:51:44;;;;;;;9.75;3.88;;;1.60;99.90;;;;;;5031095;28;20398;-90
2024/01/17 01:54:13;;;;;;;9.77;3.42;;;2.00;99.90;;;;;;5035443;28;20043;-89
2024/01/17 01:56:40;;;;;;;10.27;4.60;;;1.70;99.90;;;;;;5033305;28;20105;-89
2024/01/17 01:59:07;;;;;;;10.80;4.30;;;0.60;99.90;;;;;;5033339;28;20111;-90
2024/01/17 02:01:33;;;;;;;9.93;4.57;;;1.70;99.90;;;;;;5016695;28;20032;-89
2024/01/17 02:04:01;;;;;;;9.93;4.28;;;0.50;99.90;;;;;;5046939;28;20041;-88
2024/01/17 02:06:33;;;;;;;9.35;4.05;;;1.70;99.90;;;;;;5032861;28;20041;-88
2024/01/17 02:09:00;;;;;;;10.93;4.27;;;0.60;99.90;;;;;;5032876;28;20037;-88
2024/01/17 02:11:29;;;;;;;10.35;4.53;;;2.30;99.90;;;;;;5016416;28;20382;-89
2024/01/17 02:13:55;;;;;;;10.00;4.45;;;0.60;99.90;;;;;;5015176;28;20575;-89
2024/01/17 02:16:23;;;;;;;11.07;4.40;;;1.90;99.90;;;;;;5032911;28;20116;-89
2024/01/17 02:18:49;;;;;;;12.30;5.32;;;1.50;99.90;;;;;;5017183;28;20275;-89
2024/01/17 02:21:16;;;;;;;9.77;4.68;;;0.60;99.90;;;;;;5032999;28;20033;-89
2024/01/17 02:23:41;;;;;;;10.20;4.85;;;2.60;99.90;;;;;;5030835;28;20048;-89
2024/01/17 02:26:07;;;;;;;9.75;4.70;;;0.60;99.90;;;;;;5049897;28;20037;-88
2024/01/17 02:28:33;;;;;;;9.05;4.50;;;0.60;99.90;;;;;;5032973;28;20041;-89
2024/01/17 02:30:59;;;;;;;10.60;4.60;;;0.60;99.90;;;;;;5000478;28;20068;-90
2024/01/17 02:33:25;;;;;;;13.05;4.97;;;2.00;99.90;;;;;;5016783;28;20077;-89
2024/01/17 02:35:51;;;;;;;12.82;5.05;;;0.60;99.90;;;;;;5031131;28;20060;-90
2024/01/17 02:38:17;;;;;;;11.45;5.13;;;0.60;99.90;;;;;;5016223;28;20041;-89
2024/01/17 02:40:42;;;;;;;11.90;5.05;;;0.60;99.90;;;;;;5033035;28;20047;-90
2024/01/17 02:43:08;;;;;;;11.20;5.20;;;1.60;99.90;;;;;;4999535;28;20033;-89
2024/01/17 02:45:34;;;;;;;11.30;4.85;;;0.50;99.90;;;;;;5032202;28;20051;-89
2024/01/17 02:48:00;;;;;;;10.95;4.80;;;0.50;99.90;;;;;;5014622;28;20056;-88
2024/01/17 02:50:26;;;;;;;11.32;4.82;;;0.60;99.90;;;;;;5032407;28;20115;-89
2024/01/17 02:52:55;;;;;;;12.60;5.13;;;0.60;99.90;;;;;;5014197;28;20575;-89
2024/01/17 02:55:23;;;;;;;11.77;5.10;;;0.50;99.90;;;;;;5016390;28;20576;-89
2024/01/17 02:57:50;;;;;;;11.43;5.57;;;0.60;99.90;;;;;;5016438;28;20401;-88
2024/01/17 03:00:16;;;;;;;12.77;5.65;;;0.50;99.90;;;;;;5000255;28;20033;-89
2024/01/17 03:02:42;;;;;;;10.60;5.03;;;0.50;99.90;;;;;;5026189;28;20096;-89
2024/01/17 03:05:08;;;;;;;16.33;5.53;;;0.50;99.90;;;;;;5031884;28;20473;-89
2024/01/17 03:07:34;;;;;;;10.88;4.80;;;0.50;99.90;;;;;;5031670;28;20067;-89
2024/01/17 03:10:00;;;;;;;11.73;5.10;;;2.00;99.90;;;;;;5015475;28;20044;-89
2024/01/17 03:12:25;;;;;;;10.85;4.70;;;1.70;99.90;;;;;;5013990;28;20045;-89
2024/01/17 03:14:51;;;;;;;12.68;5.45;;;0.50;99.90;;;;;;5030308;28;20041;-89
2024/01/17 03:17:17;;;;;;;13.73;4.97;;;0.50;99.90;;;;;;5048323;28;20052;-89
2024/01/17 03:19:44;;;;;;;12.88;5.25;;;0.40;99.90;;;;;;5031309;28;20083;-89
2024/01/17 03:22:10;;;;;;;11.60;5.70;;;1.50;99.90;;;;;;5015464;28;20102;-89
2024/01/17 03:24:39;;;;;;;13.38;6.18;;;0.40;99.90;;;;;;5013654;28;20041;-89
2024/01/17 03:27:05;;;;;;;12.18;5.20;;;1.10;99.90;;;;;;5015004;28;20064;-88
2024/01/17 03:29:30;;;;;;;11.75;5.45;;;0.40;99.90;;;;;;5046589;28;20604;-89
2024/01/17 03:31:56;;;;;;;10.90;5.30;;;0.30;99.90;;;;;;5031618;28;20406;-89
2024/01/17 03:34:22;;;;;;;11.05;5.72;;;0.30;99.90;;;;;;5013081;28;20383;-88
2024/01/17 03:36:48;;;;;;;12.55;5.43;;;1.10;99.90;;;;;;5014512;28;20451;-89
2024/01/17 03:39:13;;;;;;;11.13;5.63;;;0.30;99.90;;;;;;5031543;28;20044;-89
2024/01/17 03:41:39;;;;;;;12.23;5.63;;;1.80;99.90;;;;;;4999041;28;20101;-89
2024/01/17 03:44:05;;;;;;;11.02;5.63;;;0.40;99.90;;;;;;5031234;28;20522;-89
2024/01/17 03:46:31;;;;;;;12.88;6.18;;;1.90;99.90;;;;;;5001210;28;20040;-89
2024/01/17 03:48:57;;;;;;;12.52;6.22;;;0.30;99.90;;;;;;5014903;28;20045;-89
2024/01/17 03:51:22;;;;;;;13.85;6.10;;;1.60;99.90;;;;;;5030980;28;20041;-89
2024/01/17 03:53:48;;;;;;;11.70;5.95;;;0.80;99.90;;;;;;5014975;28;20073;-88
2024/01/17 03:56:15;;;;;;;12.27;5.32;;;0.30;99.90;;;;;;5013084;28;20048;-89
2024/01/17 03:58:44;;;;;;;12.85;6.15;;;0.30;99.90;;;;;;5015046;28;20043;-89
2024/01/17 04:01:10;;;;;;;12.32;6.25;;;0.30;99.90;;;;;;5015614;28;20306;-89
2024/01/17 04:03:36;;;;;;;15.07;6.38;;;0.50;99.90;;;;;;5014375;28;20051;-87
2024/01/17 04:06:03;;;;;;;14.32;6.30;;;0.30;99.90;;;;;;5042001;28;20076;-90
2024/01/17 04:08:29;;;;;;;13.80;6.57;;;0.30;99.90;;;;;;5013069;28;20044;-89
2024/01/17 04:10:55;;;;;;;12.35;5.43;;;1.40;99.90;;;;;;5031340;28;20402;-89
2024/01/17 04:13:21;;;;;;;12.93;6.20;;;;;;;;;;5014306;28;20045;-89
2024/01/17 04:15:46;;;;;;;12.48;6.10;;;0.30;99.90;;;;;;5044416;28;20568;-89
2024/01/17 04:18:16;;;;;;;13.07;6.10;;;0.20;99.90;;;;;;5059642;28;20053;-89
2024/01/17 04:20:43;;;;;;;11.95;5.90;;;0.20;99.90;;;;;;5047340;28;20098;-89
2024/01/17 04:23:08;;;;;;;12.82;6.32;;;0.20;99.90;;;;;;5047806;28;20051;-89
2024/01/17 04:25:35;;;;;;;12.38;6.30;;;0.10;99.90;;;;;;5014066;28;20044;-89
2024/01/17 04:28:07;;;;;;;13.60;6.57;;;0.20;99.90;;;;;;5015777;28;20037;-89
2024/01/17 04:30:33;;;;;;;12.17;6.37;;;1.30;99.90;;;;;;5034767;28;20072;-89
2024/01/17 04:33:00;;;;;;;14.38;6.35;;;0.20;99.90;;;;;;5035426;28;20100;-88
2024/01/17 04:35:26;;;;;;;14.48;6.20;;;0.20;99.90;;;;;;5035005;28;20391;-88
2024/01/17 04:37:52;;;;;;;12.27;6.05;;;0.20;99.90;;;;;;4999622;28;20059;-89
2024/01/17 04:40:19;;;;;;;12.48;6.32;;;2.00;99.90;;;;;;5034378;28;20087;-89
2024/01/17 04:42:48;;;;;;;11.75;6.53;;;0.20;99.90;;;;;;5018809;28;20037;-89
2024/01/17 04:45:17;;;;;;;14.35;6.30;;;0.20;99.90;;;;;;5018349;28;20338;-89
2024/01/17 04:47:44;;;;;;;11.52;5.88;;;0.10;99.90;;;;;;5001299;28;20045;-89
2024/01/17 04:50:12;;;;;;;12.15;5.70;;;0.10;99.90;;;;;;5034909;28;20105;-89
2024/01/17 04:52:38;;;;;;;12.85;5.72;;;0.10;99.90;;;;;;5050808;28;20048;-88
2024/01/17 04:55:04;;;;;;;12.27;5.95;;;1.90;99.90;;;;;;5018212;28;20040;-89
2024/01/17 04:57:30;;;;;;;14.02;6.05;;;0.10;99.90;;;;;;5018545;28;20048;-89
2024/01/17 04:59:56;;;;;;;13.93;6.25;;;1.90;99.90;;;;;;5016235;28;20056;-89
2024/01/17 05:02:21;;;;;;;13.35;6.47;;;0.20;99.90;;;;;;5034246;28;20036;-89
2024/01/17 05:04:47;;;;;;;14.00;6.32;;;0.20;99.90;;;;;;5017073;28;20154;-89
2024/01/17 05:07:12;;;;;;;12.93;6.30;;;1.60;99.90;;;;;;5033930;28;20041;-89
2024/01/17 05:09:38;;;;;;;17.27;6.93;;;2.00;99.90;;;;;;5015730;28;20041;-89
2024/01/17 05:12:04;;;;;;;14.15;6.93;;;0.20;99.90;;;;;;5027503;28;20036;-89
2024/01/17 05:14:30;;;;;;;14.68;6.50;;;0.10;99.90;;;;;;5017749;28;20051;-89
2024/01/17 05:16:56;;;;;;;13.10;6.75;;;1.90;99.90;;;;;;5033787;28;20037;-89
2024/01/17 05:19:22;;;;;;;11.30;5.65;;;0.10;99.90;;;;;;5016803;28;20462;-89
2024/01/17 05:21:47;;;;;;;13.73;6.47;;;0.00;99.90;;;;;;5041347;28;20130;-89
2024/01/17 05:24:13;;;;;;;13.70;6.47;;;0.10;99.90;;;;;;5048905;28;20506;-89
2024/01/17 05:26:39;;;;;;;14.65;6.97;;;0.00;99.90;;;;;;5017431;28;20045;-89
2024/01/17 05:29:05;;;;;;;13.20;6.43;;;0.00;99.90;;;;;;5017615;28;20112;-89
2024/01/17 05:31:31;;;;;;;13.43;6.60;;;0.00;99.90;;;;;;5032129;28;20516;-88
2024/01/17 05:33:57;;;;;;;12.38;6.45;;;0.20;99.90;;;;;;5013489;28;20064;-89
2024/01/17 05:36:23;;;;;;;12.02;6.70;;;0.00;99.90;;;;;;5029980;28;20076;-87
2024/01/17 05:38:48;;;;;;;12.07;6.38;;;0.00;99.90;;;;;;5013046;28;20037;-89
2024/01/17 05:41:14;;;;;;;13.40;6.38;;;0.00;99.90;;;;;;5011734;28;20037;-88
2024/01/17 05:43:39;;;;;;;12.57;6.60;;;0.00;99.90;;;;;;5015102;28;20621;-88
2024/01/17 05:46:05;;;;;;;12.63;6.47;;;0.00;99.90;;;;;;5032215;28;20040;-88
2024/01/17 05:48:31;;;;;;;12.18;5.97;;;-0.10;99.90;;;;;;5030337;28;20032;-89
2024/01/17 05:50:57;;;;;;;12.32;5.93;;;-0.10;99.90;;;;;;5015935;28;20037;-88
2024/01/17 05:53:23;;;;;;;13.55;6.15;;;0.00;99.90;;;;;;5016153;28;20111;-89
2024/01/17 05:55:48;;;;;;;14.02;6.75;;;-0.20;99.90;;;;;;5030710;28;20029;-89
2024/01/17 05:58:14;;;;;;;12.55;6.43;;;-0.10;99.90;;;;;;5030341;28;20148;-89
2024/01/17 06:00:40;;;;;;;13.15;6.25;;;1.60;99.90;;;;;;4996448;28;20041;-89
2024/01/17 06:03:06;;;;;;;13.55;6.20;;;-0.10;99.90;;;;;;5027880;28;20181;-88
2024/01/17 06:05:32;;;;;;;15.35;6.30;;;-0.10;99.90;;;;;;5031449;28;20163;-89
2024/01/17 06:07:57;;;;;;;15.52;6.10;;;-0.20;99.90;;;;;;4999151;28;20573;-89
2024/01/17 06:10:25;;;;;;;12.50;5.93;;;-0.30;99.90;;;;;;5013000;28;20037;-89
2024/01/17 06:12:50;;;;;;;12.38;6.50;;;-0.30;99.90;;;;;;5031014;28;20049;-89
2024/01/17 06:15:17;;;;;;;12.60;6.78;;;-0.30;99.90;;;;;;4999951;28;20076;-89
2024/01/17 06:17:43;;;;;;;11.70;6.10;;;-0.30;99.90;;;;;;5032964;28;20114;-89
2024/01/17 06:20:11;;;;;;;12.02;6.55;;;-0.30;99.90;;;;;;5032000;28;20033;-89
2024/01/17 06:22:37;;;;;;;14.45;6.15;;;-0.30;99.90;;;;;;5017350;28;20045;-88
2024/01/17 06:25:05;;;;;;;13.70;6.07;;;-0.30;99.90;;;;;;5012149;28;20037;-88
2024/01/17 06:27:31;;;;;;;10.95;6.20;;;-0.30;99.90;;;;;;5041811;28;20505;-89
2024/01/17 06:29:57;;;;;;;12.10;7.15;;;-0.40;99.90;;;;;;4996856;28;20033;-88
2024/01/17 06:32:22;;;;;;;12.00;6.07;;;-0.40;99.90;;;;;;5027913;28;20064;-89
2024/01/17 06:34:48;;;;;;;14.60;7.68;;;-0.40;99.90;;;;;;5014533;28;20041;-89
2024/01/17 06:37:14;;;;;;;12.65;6.60;;;1.30;99.90;;;;;;5013778;28;20465;-89
2024/01/17 06:39:40;;;;;;;12.45;6.03;;;-0.50;99.90;;;;;;5010606;28;20040;-88
2024/01/17 06:42:06;;;;;;;11.80;5.95;;;;;;;;;;5025396;28;20060;-89
2024/01/17 06:44:32;;;;;;;12.75;6.22;;;-0.50;99.90;;;;;;5016127;28;20048;-89
2024/01/17 06:46:58;;;;;;;11.75;5.55;;;0.20;99.90;;;;;;5032907;28;20246;-88
2024/01/17 06:49:23;;;;;;;12.20;5.93;;;-0.50;99.90;;;;;;4999888;28;20037;-88
2024/01/17 06:51:49;;;;;;;11.45;5.70;;;-0.50;99.90;;;;;;5012788;28;20490;-88
2024/01/17 06:54:15;;;;;;;12.35;6.07;;;-0.40;99.90;;;;;;5029729;28;20411;-89
2024/01/17 06:56:41;;;;;;;12.95;6.05;;;-0.20;99.90;;;;;;5032622;28;20041;-90
2024/01/17 06:59:07;;;;;;;14.63;6.03;;;-0.50;99.90;;;;;;5012361;28;20040;-89
2024/01/17 07:01:35;;;;;;;13.00;6.13;;;1.00;99.90;;;;;;5015487;28;20036;-89
2024/01/17 07:04:02;;;;;;;10.23;5.63;;;-0.50;99.90;;;;;;5046107;28;20406;-89
2024/01/17 07:06:27;;;;;;;14.07;6.05;;;-0.50;99.90;;;;;;5032522;28;20179;-89
2024/01/17 07:08:53;;;;;;;13.25;6.22;;;-0.50;99.90;;;;;;5033228;28;20124;-89
2024/01/17 07:11:19;;;;;;;11.98;6.20;;;-0.50;99.90;;;;;;5015036;28;20040;-89
2024/01/17 07:13:44;;;;;;;12.00;5.55;;;-0.50;99.90;;;;;;5049709;28;20033;-90
2024/01/17 07:16:15;;;;;;;11.43;5.63;;;-0.50;99.90;;;;;;5015648;28;20138;-89
2024/01/17 07:18:40;;;;;;;11.68;5.30;;;-0.50;99.90;;;;;;5065205;28;20064;-89
2024/01/17 07:21:07;;;;;;;11.50;5.75;;;-0.50;99.90;;;;;;5031380;28;20033;-89
2024/01/17 07:23:33;;;;;;;11.82;5.32;;;-0.50;99.90;;;;;;5011821;28;20120;-87
2024/01/17 07:26:00;;;;;;;11.90;6.07;;;-0.50;99.90;;;;;;5012385;28;20055;-89
2024/01/17 07:28:25;;;;;;;11.85;5.47;;;0.70;99.90;;;;;;5015291;28;20051;-89
2024/01/17 07:30:51;;;;;;;12.85;5.70;;;;;;;;;;5015268;28;20417;-89
2024/01/17 07:33:17;;;;;;;13.02;6.00;;;-0.50;99.90;;;;;;5025591;28;20095;-89
2024/01/17 07:35:43;;;;;;;10.20;5.20;;;0.60;99.90;;;;;;5006951;28;20049;-89
2024/01/17 07:38:08;;;;;;;12.32;5.60;;;-0.50;99.90;;;;;;4998126;28;20116;-88
2024/01/17 07:40:34;;;;;;;12.25;5.55;;;-0.60;99.90;;;;;;5031178;28;20437;-88
2024/01/17 07:43:00;;;;;;;11.55;5.32;;;-0.60;99.90;;;;;;5015090;28;20041;-89
2024/01/17 07:45:26;;;;;;;11.35;5.68;;;-0.60;99.90;;;;;;5045314;28;20039;-89
2024/01/17 07:47:52;;;;;;;13.65;5.97;;;0.20;99.90;;;;;;5030902;28;20041;-90
2024/01/17 07:50:19;;;;;;;11.02;5.43;;;-0.70;99.90;;;;;;5023994;28;20551;-90
2024/01/17 07:52:45;;;;;;;13.07;5.72;;;-0.70;99.90;;;;;;5047565;28;20114;-91
2024/01/17 07:55:11;;;;;;;12.63;6.00;;;-0.60;99.90;;;;;;5013518;28;20045;-89
2024/01/17 07:57:37;;;;;;;10.93;5.22;;;-0.60;99.90;;;;;;5022916;28;20041;-90
2024/01/17 08:00:04;;;;;;;14.32;6.43;;;-0.60;99.90;;;;;;5011740;28;20120;-89
2024/01/17 08:02:31;;;;;;;10.70;5.55;;;-0.60;99.90;;;;;;5043928;28;20044;-89
2024/01/17 08:04:57;;;;;;;13.93;5.40;;;0.80;99.90;;;;;;5014368;28;20102;-90
2024/01/17 08:07:24;;;;;;;11.00;5.72;;;-0.60;99.90;;;;;;5029487;28;20037;-89
2024/01/17 08:09:54;;;;;;;12.23;5.75;;;-0.60;99.90;;;;;;5026626;28;20041;-89
2024/01/17 08:12:20;;;;;;;12.30;5.97;;;-0.60;99.90;;;;;;5031126;28;20103;-88
2024/01/17 08:14:46;;;;;;;12.20;5.82;;;-0.60;99.90;;;;;;5013996;28;20494;-89
2024/01/17 08:19:33;;;;;;;13.38;6.00;;;1.20;99.90;;;;;;5080322;27;20405;-84
2024/01/17 08:21:58;;;;;;;10.98;5.18;;;1.10;99.90;;;;;;5043516;28;20257;-84
2024/01/17 08:24:24;;;;;;;11.50;5.55;;;0.20;99.90;;;;;;5058158;28;20043;-84
2024/01/17 08:26:50;;;;;;;12.07;5.85;;;-0.30;99.90;;;;;;5047791;28;20452;-84
2024/01/17 08:29:16;;;;;;;10.90;5.50;;;-0.60;99.90;;;;;;5031840;28;20112;-84
2024/01/17 08:31:42;;;;;;;11.05;5.38;;;1.10;99.90;;;;;;5031768;28;20064;-84
2024/01/17 08:34:08;;;;;;;13.50;5.72;;;-0.60;99.90;;;;;;5062665;28;20094;-84
2024/01/17 08:36:33;;;;;;;11.23;5.40;;;-0.60;99.90;;;;;;5028559;28;20047;-84
2024/01/17 08:38:59;;;;;;;11.55;5.65;;;-0.60;99.90;;;;;;5030339;28;20063;-85
2024/01/17 08:41:25;;;;;;;11.63;5.60;;;-0.60;99.90;;;;;;5076953;28;20097;-84
2024/01/17 08:43:50;;;;;;;12.07;5.93;;;1.40;99.90;;;;;;5027530;28;20040;-84
2024/01/17 08:46:16;;;;;;;13.30;6.10;;;-0.60;99.90;;;;;;5064955;28;20078;-84
2024/01/17 08:48:42;;;;;;;12.60;5.40;;;-0.50;99.90;;;;;;5028400;28;20032;-84
2024/01/17 08:51:08;;;;;;;12.05;5.50;;;0.10;99.90;;;;;;5023600;28;20041;-84
2024/01/17 08:53:34;;;;;;;12.50;5.65;;;-0.70;99.90;;;;;;5036117;28;20289;-84
2024/01/17 08:56:04;;;;;;;12.68;6.32;;;-0.60;99.90;;;;;;5048308;28;20048;-84
2024/01/17 08:58:33;;;;;;;10.50;5.32;;;0.20;99.90;;;;;;5051048;28;20052;-84
2024/01/17 09:00:59;;;;;;;12.90;5.68;;;-0.50;99.90;;;;;;5045379;28;20079;-84
2024/01/17 09:03:24;;;;;;;12.85;6.03;;;-0.40;99.90;;;;;;5036101;28;20037;-84
2024/01/17 09:05:50;;;;;;;13.50;5.65;;;1.40;99.90;;;;;;5062123;28;20040;-85
2024/01/17 09:08:16;;;;;;;12.57;5.60;;;-0.50;99.90;;;;;;5043974;28;20057;-84
2024/01/17 09:10:42;;;;;;;13.35;6.32;;;-0.40;99.90;;;;;;5028524;28;20479;-84
2024/01/17 09:13:09;;;;;;;13.95;5.97;;;-0.40;99.90;;;;;;5042552;28;20106;-84
2024/01/17 09:15:35;;;;;;;10.60;5.40;;;-0.30;99.90;;;;;;5042634;28;20517;-84
2024/01/17 09:18:01;;;;;;;10.23;5.18;;;1.50;99.90;;;;;;5044111;28;20058;-84
2024/01/17 09:20:27;;;;;;;12.80;5.38;;;0.50;99.90;;;;;;5027922;28;20449;-84
2024/01/17 09:22:53;;;;;;;11.15;5.70;;;-0.10;99.90;;;;;;5024974;28;20072;-84
2024/01/17 09:25:19;;;;;;;13.43;5.13;;;0.20;99.90;;;;;;5041480;28;20068;-84
2024/01/17 09:27:45;;;;;;;11.60;6.07;;;-0.30;99.90;;;;;;5037061;28;20042;-84
2024/01/17 09:30:11;;;;;;;13.20;6.13;;;-0.20;99.90;;;;;;5030565;28;20404;-84
2024/01/17 09:32:37;;;;;;;13.43;5.97;;;-0.20;99.90;;;;;;5027038;28;20652;-84
2024/01/17 09:35:04;;;;;;;11.18;5.70;;;-0.70;99.90;;;;;;4997422;28;20033;-85
2024/01/17 09:37:30;;;;;;;13.20;5.60;;;-0.20;99.90;;;;;;5012175;28;20061;-85
2024/01/17 09:39:56;;;;;;;11.45;5.75;;;0.40;99.90;;;;;;5003353;28;20041;-84
2024/01/17 09:42:22;;;;;;;10.30;5.32;;;1.10;99.90;;;;;;5031004;28;20037;-84
2024/01/17 09:44:48;;;;;;;11.65;5.60;;;-0.10;99.90;;;;;;5031156;28;20038;-85
2024/01/17 09:47:17;;;;;;;13.80;5.60;;;1.40;99.90;;;;;;5028681;28;20452;-84
2024/01/17 09:49:44;;;;;;;12.15;5.65;;;0.90;99.90;;;;;;5013022;28;20044;-84
2024/01/17 09:52:11;;;;;;;11.63;5.60;;;-0.20;99.90;;;;;;5027974;28;20044;-84
2024/01/17 09:54:41;;;;;;;12.32;5.65;;;0.70;99.90;;;;;;5013527;28;20402;-85
2024/01/17 09:57:08;;;;;;;11.25;5.53;;;-0.10;99.90;;;;;;5028451;28;20517;-85
2024/01/17 09:59:38;;;;;;;11.40;6.00;;;-0.10;99.90;;;;;;5029259;28;20044;-84
2024/01/17 10:02:05;;;;;;;12.30;5.32;;;0.40;99.90;;;;;;5035961;28;20103;-85
2024/01/17 10:04:31;;;;;;;10.93;5.18;;;0.80;99.90;;;;;;5013011;28;20038;-85
2024/01/17 10:06:57;;;;;;;10.88;5.50;;;1.60;99.90;;;;;;5013589;28;20107;-85
2024/01/17 10:09:24;;;;;;;13.27;5.68;;;1.80;99.90;;;;;;5028278;28;20513;-85
2024/01/17 10:11:53;;;;;;;11.35;5.47;;;0.30;99.90;;;;;;5013757;28;20033;-85
2024/01/17 10:14:21;;;;;;;13.73;5.47;;;1.10;99.90;;;;;;5012335;28;20117;-85
2024/01/17 10:16:48;;;;;;;12.43;5.72;;;1.40;99.90;;;;;;5013857;28;20047;-84
2024/01/17 10:19:15;;;;;;;14.50;5.75;;;0.10;99.90;;;;;;5063501;28;20050;-84
2024/01/17 10:21:43;;;;;;;11.68;6.13;;;0.10;99.90;;;;;;5002638;28;20116;-84
2024/01/17 10:24:10;;;;;;;13.18;6.07;;;0.10;99.90;;;;;;5027804;28;20062;-84
2024/01/17 10:26:44;;;;;;;13.50;5.68;;;2.00;99.90;;;;;;5012522;28;20030;-84
2024/01/17 10:29:11;;;;;;;11.70;5.60;;;0.20;99.90;;;;;;5030483;28;20053;-84
2024/01/17 10:31:41;;;;;;;12.18;5.65;;;0.80;99.90;;;;;;5008167;28;20148;-84
2024/01/17 10:34:10;;;;;;;12.07;5.30;;;1.10;99.90;;;;;;5030598;28;20144;-84
2024/01/17 10:36:44;;;;;;;11.82;5.43;;;0.90;99.90;;;;;;5010836;28;20162;-84
2024/01/17 10:39:11;;;;;;;11.45;5.78;;;0.20;99.90;;;;;;5054057;28;20053;-84
2024/01/17 10:41:54;;;;;;;12.88;5.50;;;1.60;99.90;;;;;;5027959;28;20498;-84
2024/01/17 10:44:27;;;;;;;11.65;5.60;;;1.40;99.90;;;;;;5040556;28;20042;-84
2024/01/17 10:46:54;;;;;;;11.50;5.20;;;0.90;99.90;;;;;;5012036;28;20694;-85
2024/01/17 10:49:21;;;;;;;11.18;5.70;;;0.20;99.90;;;;;;5025025;28;20441;-84
2024/01/17 10:52:03;;;;;;;11.85;4.93;;;0.30;99.90;;;;;;5024819;28;20530;-84
2024/01/17 10:54:46;;;;;;;11.80;5.53;;;0.30;99.90;;;;;;5010672;28;20049;-85
2024/01/17 10:57:15;;;;;;;11.50;5.13;;;0.30;99.90;;;;;;5028922;28;20049;-85
2024/01/17 11:00:04;;;;;;;11.13;4.90;;;2.10;99.90;;;;;;5009782;28;20045;-85
2024/01/17 11:02:31;;;;;;;12.07;5.00;;;1.80;99.90;;;;;;5010275;28;20636;-84
2024/01/17 11:05:07;;;;;;;12.05;5.07;;;0.90;99.90;;;;;;5020623;28;20038;-85
2024/01/17 11:07:35;;;;;;;10.30;4.93;;;0.50;99.90;;;;;;5013027;28;20127;-84
2024/01/17 11:10:03;;;;;;;10.48;4.88;;;1.20;99.90;;;;;;5042990;28;20033;-85
2024/01/17 11:12:32;;;;;;;12.82;5.03;;;0.60;99.90;;;;;;5012082;28;20371;-85
2024/01/17 11:15:00;;;;;;;11.90;5.63;;;2.40;99.90;;;;;;5037402;28;20112;-85
2024/01/17 11:17:35;;;;;;;12.13;5.20;;;0.70;99.90;;;;;;5055313;28;20057;-85
2024/01/17 11:20:10;;;;;;;12.13;5.25;;;1.30;99.90;;;;;;5010171;28;20116;-84
2024/01/17 11:22:37;;;;;;;10.02;4.90;;;1.80;99.90;;;;;;5012623;28;20041;-85
2024/01/17 11:25:02;;;;;;;10.98;5.25;;;0.70;99.90;;;;;;5012703;28;20041;-85
2024/01/17 11:27:38;;;;;;;11.57;5.18;;;0.60;99.90;;;;;;5028826;28;20037;-85
2024/01/17 11:30:22;;;;;;;10.20;4.55;;;1.40;99.90;;;;;;5005164;28;20034;-85
2024/01/17 11:33:08;;;;;;;12.18;4.93;;;0.60;99.90;;;;;;5028270;28;20037;-85
2024/01/17 11:35:43;;;;;;;10.57;5.30;;;0.60;99.90;;;;;;5012645;28;20038;-85
2024/01/17 11:38:24;;;;;;;9.20;4.38;;;0.60;99.90;;;;;;5012465;28;20069;-85
2024/01/17 11:40:53;;;;;;;10.50;4.82;;;1.50;99.90;;;;;;5024260;28;20065;-84
2024/01/17 11:43:26;;;;;;;13.02;5.03;;;1.40;99.90;;;;;;5008911;28;20087;-84
2024/01/17 11:45:53;;;;;;;10.07;5.45;;;1.20;99.90;;;;;;5012959;28;20448;-85
2024/01/17 11:48:22;;;;;;;10.68;4.85;;;1.80;99.90;;;;;;5012587;28;20080;-84
2024/01/17 11:51:08;;;;;;;10.98;4.75;;;0.50;99.90;;;;;;5011624;28;20033;-84
2024/01/17 11:53:40;;;;;;;10.93;5.25;;;0.50;99.90;;;;;;5016465;28;20120;-85
2024/01/17 11:56:08;;;;;;;12.45;5.25;;;1.50;99.90;;;;;;5015357;28;20049;-85
2024/01/17 11:58:49;;;;;;;9.95;4.93;;;0.90;99.90;;;;;;5011562;28;20044;-85
2024/01/17 12:01:34;;;;;;;10.90;4.97;;;0.80;99.90;;;;;;5060168;28;20037;-84
2024/01/17 12:04:00;;;;;;;11.13;5.00;;;0.50;99.90;;;;;;5027486;28;20038;-84
2024/01/17 12:06:25;;;;;;;11.38;5.30;;;1.30;99.90;;;;;;4993330;28;20514;-85
2024/01/17 12:08:52;;;;;;;11.77;5.40;;;1.80;99.90;;;;;;5028420;28;20041;-85
2024/01/17 12:11:18;;;;;;;10.35;5.13;;;1.40;99.90;;;;;;5043862;28;20042;-85
2024/01/17 12:13:47;;;;;;;10.18;4.68;;;2.20;99.90;;;;;;5060872;28;20045;-85
2024/01/17 12:16:15;;;;;;;12.38;5.38;;;1.20;99.90;;;;;;5012126;28;20045;-85
2024/01/17 12:18:41;;;;;;;11.57;5.03;;;0.50;99.90;;;;;;5025336;28;20132;-85
2024/01/17 12:21:07;;;;;;;10.00;4.70;;;0.90;99.90;;;;;;5044497;28;20046;-85
2024/01/17 12:23:35;;;;;;;12.35;5.50;;;1.50;99.90;;;;;;5027768;28;20092;-85
2024/01/17 12:26:01;;;;;;;11.75;5.22;;;0.50;99.90;;;;;;5011984;28;20041;-84
2024/01/17 12:28:28;;;;;;;10.60;5.43;;;1.70;99.90;;;;;;5027240;28;20050;-84
2024/01/17 12:31:05;;;;;;;10.70;4.90;;;2.30;99.90;;;;;;5009900;28;20064;-84
2024/01/17 12:33:33;;;;;;;11.98;5.35;;;1.50;99.90;;;;;;5008942;28;20045;-85
2024/01/17 12:36:02;;;;;;;12.48;5.30;;;2.10;99.90;;;;;;5027988;28;20072;-84
2024/01/17 12:38:29;;;;;;;11.70;5.50;;;2.00;99.90;;;;;;5011104;28;20046;-84
2024/01/17 12:40:55;;;;;;;11.18;5.28;;;0.50;99.90;;;;;;5028028;28;20041;-84
2024/01/17 12:43:21;;;;;;;11.35;5.90;;;0.60;99.90;;;;;;5022186;28;20498;-84
2024/01/17 12:45:48;;;;;;;11.18;5.32;;;0.90;99.90;;;;;;5011415;28;20037;-84
2024/01/17 12:48:15;;;;;;;10.63;5.30;;;0.60;99.90;;;;;;5027058;28;20049;-84
2024/01/17 12:50:54;;;;;;;11.77;5.50;;;2.20;99.90;;;;;;5033128;28;20418;-84